createdAt,value
2022-08-22T00:02:33.114Z,7.07
2022-08-22T00:02:48.854Z,6.40
2022-08-22T00:02:53.827Z,7.30
2022-08-22T00:05:13.516Z,7.63
2022-08-22T00:07:56.291Z,6.78
2022-08-22T00:10:57.891Z,6.72
2022-08-22T00:13:34.294Z,7.65
2022-08-22T00:16:05.731Z,8.40
2022-08-22T00:18:39.452Z,7.20
2022-08-22T00:21:31.809Z,6.25
2022-08-22T00:24:34.086Z,6.40
2022-08-22T00:27:08.421Z,7.05
2022-08-22T00:29:45.726Z,7.13
2022-08-22T00:32:20.575Z,6.50
2022-08-22T00:35:07.734Z,6.43
2022-08-22T00:37:46.158Z,6.13
2022-08-22T00:40:30.320Z,6.32
2022-08-22T00:43:08.471Z,6.20
2022-08-22T00:45:53.715Z,6.13
2022-08-22T00:48:53.473Z,6.30
2022-08-22T00:51:40.554Z,6.00
2022-08-22T00:54:32.154Z,6.43
2022-08-22T00:57:22.527Z,5.47
2022-08-22T01:00:13.351Z,5.72
2022-08-22T01:02:58.632Z,6.68
2022-08-22T01:05:49.536Z,5.25
2022-08-22T01:08:22.293Z,5.75
2022-08-22T01:11:04.130Z,6.07
2022-08-22T01:14:14.844Z,5.65
2022-08-22T01:17:02.598Z,5.47
2022-08-22T01:20:14.299Z,6.43
2022-08-22T01:23:02.255Z,6.45
2022-08-22T01:25:58.019Z,5.88
2022-08-22T01:28:38.407Z,6.10
2022-08-22T01:31:13.144Z,7.60
2022-08-22T01:34:04.517Z,5.70
2022-08-22T01:36:49.284Z,6.13
2022-08-22T01:39:25.749Z,6.22
2022-08-22T01:42:23.455Z,6.20
2022-08-22T01:45:19.146Z,5.90
2022-08-22T01:47:56.700Z,5.43
2022-08-22T01:50:35.232Z,6.30
2022-08-22T01:53:12.443Z,6.95
2022-08-22T01:55:45.805Z,5.65
2022-08-22T01:58:23.690Z,6.50
2022-08-22T02:01:08.543Z,5.63
2022-08-22T02:03:40.264Z,5.53
2022-08-22T02:06:31.892Z,5.35
2022-08-22T02:09:19.643Z,5.93
2022-08-22T02:12:21.537Z,5.30
2022-08-22T02:15:07.706Z,5.72
2022-08-22T02:17:54.741Z,5.30
2022-08-22T02:20:37.948Z,5.15
2022-08-22T02:23:15.689Z,5.78
2022-08-22T02:26:01.009Z,5.40
2022-08-22T02:28:36.670Z,5.75
2022-08-22T02:33:46.652Z,5.13
2022-08-22T02:36:19.536Z,6.00
2022-08-22T02:39:07.024Z,5.28
2022-08-22T02:41:57.317Z,4.72
2022-08-22T02:44:32.000Z,4.65
2022-08-22T02:47:22.455Z,5.00
2022-08-22T02:50:03.200Z,5.03
2022-08-22T02:52:49.786Z,6.07
2022-08-22T02:55:29.733Z,6.23
2022-08-22T02:58:18.129Z,6.97
2022-08-22T03:01:09.444Z,5.93
2022-08-22T03:03:41.125Z,6.07
2022-08-22T03:06:32.438Z,5.65
2022-08-22T03:09:20.704Z,6.05
2022-08-22T03:11:52.806Z,6.07
2022-08-22T03:14:31.097Z,6.18
2022-08-22T03:17:05.880Z,5.78
2022-08-22T03:19:46.300Z,6.68
2022-08-22T03:22:22.137Z,5.75
2022-08-22T03:25:26.687Z,6.70
2022-08-22T03:28:10.227Z,6.13
2022-08-22T03:31:05.500Z,5.88
2022-08-22T03:33:32.456Z,6.10
2022-08-22T03:36:05.414Z,4.95
2022-08-22T03:38:32.134Z,5.85
2022-08-22T03:41:10.933Z,5.97
2022-08-22T03:43:55.860Z,6.25
2022-08-22T03:46:35.499Z,6.20
2022-08-22T03:49:23.451Z,5.85
2022-08-22T03:52:31.559Z,5.28
2022-08-22T03:55:18.969Z,5.72
2022-08-22T03:57:52.031Z,5.65
2022-08-22T04:00:34.013Z,5.40
2022-08-22T04:03:28.297Z,5.05
2022-08-22T04:06:03.918Z,5.35
2022-08-22T04:08:56.938Z,4.78
2022-08-22T04:11:56.782Z,4.82
2022-08-22T04:14:29.261Z,5.95
2022-08-22T04:17:31.435Z,5.38
2022-08-22T04:20:09.891Z,5.25
2022-08-22T04:23:44.250Z,5.25
2022-08-22T04:26:19.630Z,4.68
2022-08-22T04:28:57.135Z,4.40
2022-08-22T04:31:29.914Z,4.78
2022-08-22T04:34:03.928Z,5.28
2022-08-22T04:36:39.413Z,4.97
2022-08-22T04:41:48.806Z,4.72
2022-08-22T04:44:30.516Z,5.07
2022-08-22T04:47:08.259Z,4.90
2022-08-22T04:49:37.251Z,4.60
2022-08-22T04:52:24.495Z,4.45
2022-08-22T04:55:08.540Z,5.00
2022-08-22T04:58:02.562Z,4.63
2022-08-22T05:00:59.366Z,4.15
2022-08-22T05:03:28.910Z,4.30
2022-08-22T05:05:59.054Z,4.18
2022-08-22T05:08:31.088Z,3.83
2022-08-22T05:11:00.970Z,3.65
2022-08-22T05:13:50.037Z,4.35
2022-08-22T05:16:22.803Z,4.53
2022-08-22T05:18:53.817Z,5.00
2022-08-22T05:21:27.061Z,4.10
2022-08-22T05:24:02.919Z,4.72
2022-08-22T05:26:36.303Z,3.63
2022-08-22T05:29:08.142Z,4.50
2022-08-22T05:31:47.548Z,4.03
2022-08-22T05:34:19.114Z,4.38
2022-08-22T05:37:12.790Z,4.55
2022-08-22T05:39:47.168Z,4.10
2022-08-22T05:42:21.297Z,4.00
2022-08-22T05:44:48.671Z,3.83
2022-08-22T05:47:33.562Z,5.13
2022-08-22T05:50:08.252Z,3.90
2022-08-22T05:52:53.132Z,4.20
2022-08-22T05:55:38.098Z,3.93
2022-08-22T05:58:44.468Z,4.63
2022-08-22T06:01:17.197Z,4.60
2022-08-22T06:04:06.770Z,3.55
2022-08-22T06:06:46.985Z,4.10
2022-08-22T06:09:35.860Z,4.25
2022-08-22T06:12:21.885Z,4.80
2022-08-22T06:15:12.306Z,3.55
2022-08-22T06:17:49.819Z,3.67
2022-08-22T06:20:22.197Z,4.53
2022-08-22T06:22:58.697Z,4.10
2022-08-22T06:25:31.069Z,4.43
2022-08-22T06:28:09.841Z,3.60
2022-08-22T06:30:38.025Z,4.45
2022-08-22T06:33:12.807Z,4.47
2022-08-22T06:36:05.710Z,3.92
2022-08-22T06:38:51.744Z,3.58
2022-08-22T06:41:22.095Z,4.20
2022-08-22T06:43:52.747Z,3.60
2022-08-22T06:46:22.062Z,4.28
2022-08-22T06:48:49.163Z,4.68
2022-08-22T06:51:19.409Z,3.85
2022-08-22T06:53:49.981Z,3.42
2022-08-22T06:56:40.610Z,3.83
2022-08-22T06:59:14.690Z,4.18
2022-08-22T07:01:56.384Z,3.58
2022-08-22T07:04:26.793Z,4.30
2022-08-22T07:06:56.450Z,3.55
2022-08-22T07:09:26.160Z,3.90
2022-08-22T07:11:56.233Z,3.72
2022-08-22T07:14:31.688Z,3.70
2022-08-22T07:17:04.873Z,4.55
2022-08-22T07:19:35.998Z,3.60
2022-08-22T07:22:14.843Z,3.72
2022-08-22T07:24:50.588Z,2.95
2022-08-22T07:27:30.800Z,3.63
2022-08-22T07:30:09.986Z,4.10
2022-08-22T07:32:51.888Z,3.30
2022-08-22T07:35:24.385Z,4.28
2022-08-22T07:38:17.063Z,4.18
2022-08-22T07:40:55.596Z,3.60
2022-08-22T07:43:30.795Z,3.72
2022-08-22T07:46:31.440Z,4.40
2022-08-22T07:49:13.883Z,3.88
2022-08-22T07:51:45.206Z,5.30
2022-08-22T07:54:15.659Z,4.72
2022-08-22T07:56:53.468Z,3.65
2022-08-22T07:59:22.320Z,4.18
2022-08-22T08:01:53.618Z,5.05
2022-08-22T08:04:28.287Z,3.92
2022-08-22T08:06:58.763Z,4.35
2022-08-22T08:09:30.854Z,3.28
2022-08-22T08:11:59.810Z,3.10
2022-08-22T08:14:27.234Z,3.80
2022-08-22T08:17:05.980Z,3.55
2022-08-22T08:19:36.910Z,3.85
2022-08-22T08:22:04.978Z,3.42
2022-08-22T08:24:41.358Z,3.13
2022-08-22T08:27:38.408Z,2.65
2022-08-22T08:30:53.060Z,2.80
2022-08-22T08:33:25.050Z,3.00
2022-08-22T08:36:16.730Z,3.15
2022-08-22T08:39:14.283Z,2.55
2022-08-22T08:41:46.860Z,3.47
2022-08-22T08:44:17.088Z,4.28
2022-08-22T08:47:07.143Z,4.00
2022-08-22T08:49:50.557Z,3.90
2022-08-22T08:52:40.548Z,3.95
2022-08-22T08:55:28.685Z,3.92
2022-08-22T08:58:33.901Z,3.83
2022-08-22T09:01:19.434Z,3.78
2022-08-22T09:03:52.250Z,6.50
2022-08-22T09:06:56.803Z,3.28
2022-08-22T09:09:46.425Z,3.85
2022-08-22T09:13:12.353Z,3.05
2022-08-22T09:16:04.579Z,2.97
2022-08-22T09:18:51.025Z,3.08
2022-08-22T09:21:27.612Z,3.78
2022-08-22T09:24:27.955Z,2.33
2022-08-22T09:26:58.043Z,2.80
2022-08-22T09:29:59.800Z,3.83
2022-08-22T09:33:16.945Z,3.30
2022-08-22T09:36:05.979Z,3.55
2022-08-22T09:38:57.392Z,3.28
2022-08-22T09:41:36.677Z,3.53
2022-08-22T09:44:12.703Z,2.90
2022-08-22T09:46:40.134Z,3.47
2022-08-22T09:49:14.502Z,3.50
2022-08-22T09:52:14.413Z,2.83
2022-08-22T09:55:16.931Z,3.97
2022-08-22T09:58:11.229Z,3.97
2022-08-22T10:00:55.239Z,3.38
2022-08-22T10:03:33.788Z,3.75
2022-08-22T10:06:05.482Z,4.00
2022-08-22T10:08:48.427Z,4.28
2022-08-22T10:11:42.268Z,3.40
2022-08-22T10:14:24.387Z,3.53
2022-08-22T10:17:21.810Z,3.40
2022-08-22T10:19:59.765Z,3.40
2022-08-22T10:22:36.678Z,4.10
2022-08-22T10:25:22.774Z,4.85
2022-08-22T10:28:07.880Z,3.60
2022-08-22T10:30:51.099Z,4.40
2022-08-22T10:33:31.426Z,4.35
2022-08-22T10:36:11.857Z,4.93
2022-08-22T10:38:53.584Z,5.18
2022-08-22T10:41:47.434Z,5.30
2022-08-22T10:44:23.545Z,4.87
2022-08-22T10:46:53.077Z,5.90
2022-08-22T10:49:30.655Z,8.23
2022-08-22T10:52:29.676Z,6.57
2022-08-22T10:55:11.996Z,5.88
2022-08-22T10:57:52.533Z,6.47
2022-08-22T11:00:58.498Z,4.78
2022-08-22T11:03:43.482Z,6.22
2022-08-22T11:06:45.319Z,5.15
2022-08-22T11:09:35.783Z,6.95
2022-08-22T11:12:16.061Z,6.05
2022-08-22T11:15:14.267Z,6.53
2022-08-22T11:18:31.282Z,6.55
2022-08-22T11:21:04.679Z,6.90
2022-08-22T11:24:01.894Z,6.50
2022-08-22T11:26:51.417Z,7.72
2022-08-22T11:29:24.069Z,7.03
2022-08-22T11:32:13.808Z,8.57
2022-08-22T11:35:11.925Z,6.97
2022-08-22T11:37:47.708Z,8.63
2022-08-22T11:40:46.597Z,7.10
2022-08-22T11:43:41.621Z,8.23
2022-08-22T11:46:30.325Z,9.02
2022-08-22T11:49:04.047Z,7.47
2022-08-22T11:51:59.256Z,6.20
2022-08-22T11:54:51.746Z,6.97
2022-08-22T11:57:44.775Z,8.52
2022-08-22T12:00:20.819Z,8.02
2022-08-22T12:03:25.116Z,8.57
2022-08-22T12:06:03.485Z,7.43
2022-08-22T12:08:30.345Z,7.47
2022-08-22T12:11:03.452Z,8.32
2022-08-22T12:14:06.646Z,10.15
2022-08-22T12:17:08.253Z,9.00
2022-08-22T12:20:16.831Z,9.38
2022-08-22T12:22:58.770Z,8.98
2022-08-22T12:25:53.286Z,9.55
2022-08-22T12:28:35.834Z,11.27
2022-08-22T12:31:05.677Z,11.00
2022-08-22T12:34:01.263Z,9.23
2022-08-22T12:37:07.152Z,9.65
2022-08-22T12:40:19.249Z,9.70
2022-08-22T12:43:06.618Z,9.48
2022-08-22T12:45:40.376Z,10.73
2022-08-22T12:48:32.160Z,11.23
2022-08-22T12:51:17.211Z,10.13
2022-08-22T12:54:05.582Z,11.52
2022-08-22T12:56:47.675Z,10.30
2022-08-22T12:59:27.522Z,9.90
2022-08-22T13:01:59.467Z,10.55
2022-08-22T13:04:33.202Z,9.23
2022-08-22T13:07:23.152Z,10.45
2022-08-22T13:10:40.379Z,10.43
2022-08-22T13:13:12.052Z,11.45
2022-08-22T13:15:53.601Z,7.88
2022-08-22T13:18:31.245Z,10.48
2022-08-22T13:21:02.268Z,11.90
2022-08-22T13:23:39.690Z,9.10
2022-08-22T13:26:33.019Z,9.10
2022-08-22T13:29:25.224Z,8.98
2022-08-22T13:32:00.261Z,8.20
2022-08-22T13:34:33.220Z,8.20
2022-08-22T13:37:11.068Z,8.07
2022-08-22T13:39:42.558Z,7.63
2022-08-22T13:42:30.431Z,7.63
2022-08-22T13:45:02.379Z,7.55
2022-08-22T13:47:32.516Z,6.38
2022-08-22T13:50:22.979Z,8.85
2022-08-22T13:53:11.517Z,9.30
2022-08-22T13:55:56.930Z,6.63
2022-08-22T13:58:44.189Z,7.43
2022-08-22T14:01:14.957Z,7.13
2022-08-22T14:04:07.966Z,8.23
2022-08-22T14:07:13.438Z,8.05
2022-08-22T14:12:57.087Z,7.03
2022-08-22T14:15:45.681Z,6.57
2022-08-22T14:18:36.503Z,8.15
2022-08-22T14:21:18.301Z,6.55
2022-08-22T14:23:50.339Z,7.65
2022-08-22T14:26:49.136Z,7.55
2022-08-22T14:29:18.723Z,6.30
2022-08-22T14:32:06.590Z,6.72
2022-08-22T14:34:41.718Z,6.32
2022-08-22T14:37:27.539Z,5.70
2022-08-22T14:40:01.444Z,5.60
2022-08-22T14:42:58.800Z,6.40
2022-08-22T14:45:34.483Z,6.90
2022-08-22T14:48:30.617Z,6.13
2022-08-22T14:51:06.183Z,7.18
2022-08-22T14:53:38.620Z,6.55
2022-08-22T14:56:22.024Z,7.30
2022-08-22T14:59:08.953Z,6.20
2022-08-22T15:02:11.939Z,7.82
2022-08-22T15:04:44.259Z,7.78
2022-08-22T15:07:25.033Z,6.63
2022-08-22T15:10:11.904Z,6.80
2022-08-22T15:12:49.535Z,6.68
2022-08-22T15:15:49.315Z,6.07
2022-08-22T15:18:58.822Z,6.15
2022-08-22T15:21:30.222Z,8.48
2022-08-22T15:24:04.420Z,7.38
2022-08-22T15:26:50.080Z,6.15
2022-08-22T15:29:24.435Z,6.13
2022-08-22T15:31:54.728Z,9.02
2022-08-22T15:34:44.953Z,5.75
2022-08-22T15:37:20.681Z,6.38
2022-08-22T15:40:14.181Z,6.15
2022-08-22T15:42:51.075Z,5.68
2022-08-22T15:45:34.841Z,6.20
2022-08-22T15:48:07.835Z,4.82
2022-08-22T15:50:58.645Z,6.38
2022-08-22T15:53:33.483Z,5.63
2022-08-22T15:56:05.496Z,5.82
2022-08-22T15:58:37.274Z,6.55
2022-08-22T16:01:19.777Z,5.00
2022-08-22T16:04:08.505Z,6.28
2022-08-22T16:06:50.492Z,6.85
2022-08-22T16:09:38.440Z,6.97
2022-08-22T16:12:11.812Z,7.68
2022-08-22T16:14:41.427Z,8.07
2022-08-22T16:17:30.009Z,6.90
2022-08-22T16:20:15.893Z,6.80
2022-08-22T16:22:58.756Z,6.55
2022-08-22T16:25:44.450Z,6.07
2022-08-22T16:28:57.011Z,6.35
2022-08-22T16:31:48.136Z,6.15
2022-08-22T16:34:18.125Z,6.97
2022-08-22T16:37:03.537Z,5.95
2022-08-22T16:39:39.468Z,6.18
2022-08-22T16:42:15.807Z,7.70
2022-08-22T16:44:54.215Z,6.22
2022-08-22T16:47:56.788Z,5.53
2022-08-22T16:50:31.578Z,6.90
2022-08-22T16:53:16.988Z,8.13
2022-08-22T16:55:47.973Z,7.32
2022-08-22T16:58:57.010Z,7.22
2022-08-22T17:01:46.132Z,7.75
2022-08-22T17:04:50.134Z,7.15
2022-08-22T17:07:32.890Z,7.20
2022-08-22T17:10:23.599Z,7.32
2022-08-22T17:13:08.793Z,5.43
2022-08-22T17:15:50.522Z,7.18
2022-08-22T17:18:45.397Z,6.25
2022-08-22T17:21:25.896Z,7.60
2022-08-22T17:23:58.953Z,6.40
2022-08-22T17:26:41.268Z,6.57
2022-08-22T17:29:45.612Z,7.40
2022-08-22T17:32:20.837Z,6.30
2022-08-22T17:34:57.490Z,7.88
2022-08-22T17:38:02.473Z,7.05
2022-08-22T17:41:04.650Z,6.63
2022-08-22T17:43:49.493Z,6.35
2022-08-22T17:46:29.935Z,9.13
2022-08-22T17:49:12.244Z,7.32
2022-08-22T17:52:11.597Z,7.50
2022-08-22T17:54:59.125Z,8.00
2022-08-22T17:57:40.698Z,7.10
2022-08-22T18:00:20.269Z,6.82
2022-08-22T18:03:08.790Z,6.70
2022-08-22T18:06:04.990Z,8.35
2022-08-22T18:12:03.294Z,7.32
2022-08-22T18:14:54.995Z,7.22
2022-08-22T18:17:34.896Z,6.55
2022-08-22T18:20:08.426Z,6.45
2022-08-22T18:22:54.099Z,7.32
2022-08-22T18:25:21.205Z,6.20
2022-08-22T18:28:03.612Z,8.02
2022-08-22T18:30:47.923Z,6.95
2022-08-22T18:33:29.047Z,6.88
2022-08-22T18:36:23.725Z,8.10
2022-08-22T18:39:00.137Z,7.10
2022-08-22T18:41:38.926Z,8.30
2022-08-22T18:44:20.119Z,6.40
2022-08-22T18:46:51.982Z,7.63
2022-08-22T18:49:19.738Z,10.20
2022-08-22T18:52:05.682Z,6.55
2022-08-22T18:57:49.386Z,6.75
2022-08-22T19:00:53.757Z,6.75
2022-08-22T19:03:53.825Z,6.95
2022-08-22T19:06:45.188Z,6.55
2022-08-22T19:09:35.352Z,7.70
2022-08-22T19:12:35.773Z,7.03
2022-08-22T19:15:21.525Z,8.45
2022-08-22T19:18:15.280Z,5.90
2022-08-22T19:21:00.630Z,6.93
2022-08-22T19:23:37.073Z,6.13
2022-08-22T19:26:26.033Z,6.75
2022-08-22T19:29:13.212Z,6.15
2022-08-22T19:31:52.159Z,6.25
2022-08-22T19:34:37.072Z,6.65
2022-08-22T19:37:30.751Z,5.67
2022-08-22T19:42:34.329Z,6.82
2022-08-22T19:45:03.920Z,7.30
2022-08-22T19:47:40.393Z,6.80
2022-08-22T19:50:28.065Z,7.03
2022-08-22T19:53:27.253Z,7.18
2022-08-22T19:56:14.344Z,6.72
2022-08-22T19:58:50.590Z,7.22
2022-08-22T20:01:26.008Z,7.82
2022-08-22T20:04:05.737Z,7.40
2022-08-22T20:07:15.317Z,7.00
2022-08-22T20:10:11.615Z,7.22
2022-08-22T20:15:20.844Z,7.60
2022-08-22T20:18:11.659Z,7.68
2022-08-22T20:20:54.716Z,8.13
2022-08-22T20:23:31.589Z,9.00
2022-08-22T20:25:59.030Z,8.68
2022-08-22T20:28:35.425Z,8.23
2022-08-22T20:31:06.705Z,7.53
2022-08-22T20:33:42.517Z,8.45
2022-08-22T20:36:16.737Z,9.82
2022-08-22T20:39:00.123Z,8.35
2022-08-22T20:41:54.069Z,8.93
2022-08-22T20:44:31.662Z,8.10
2022-08-22T20:47:07.859Z,7.63
2022-08-22T20:49:48.430Z,8.70
2022-08-22T20:52:26.422Z,9.70
2022-08-22T20:55:11.050Z,9.43
2022-08-22T20:57:51.678Z,7.38
2022-08-22T21:00:24.462Z,9.75
2022-08-22T21:03:02.465Z,8.95
2022-08-22T21:05:41.525Z,8.60
2022-08-22T21:08:26.531Z,8.10
2022-08-22T21:11:24.000Z,7.55
2022-08-22T21:13:52.045Z,8.05
2022-08-22T21:16:32.028Z,8.55
2022-08-22T21:19:01.706Z,7.47
2022-08-22T21:21:34.597Z,8.18
2022-08-22T21:24:07.377Z,8.15
2022-08-22T21:26:46.459Z,8.05
2022-08-22T21:29:13.241Z,7.78
2022-08-22T21:31:48.572Z,9.13
2022-08-22T21:34:23.427Z,7.82
2022-08-22T21:36:53.762Z,6.63
2022-08-22T21:39:29.021Z,8.85
2022-08-22T21:42:01.983Z,7.72
2022-08-22T21:44:31.608Z,8.13
2022-08-22T21:47:23.298Z,6.70
2022-08-22T21:50:00.821Z,7.35
2022-08-22T21:52:29.387Z,6.95
2022-08-22T21:55:17.038Z,7.38
2022-08-22T21:57:44.444Z,6.18
2022-08-22T22:00:57.637Z,6.57
2022-08-22T22:03:30.831Z,7.22
2022-08-22T22:06:04.190Z,7.22
2022-08-22T22:08:31.535Z,6.32
2022-08-22T22:11:01.904Z,6.40
2022-08-22T22:13:29.539Z,8.30
2022-08-22T22:15:56.994Z,7.55
2022-08-22T22:18:28.976Z,7.15
2022-08-22T22:20:56.516Z,8.13
2022-08-22T22:23:23.496Z,6.82
2022-08-22T22:25:51.913Z,6.80
2022-08-22T22:28:47.737Z,6.95
2022-08-22T22:31:18.213Z,6.38
2022-08-22T22:33:46.036Z,6.25
2022-08-22T22:36:18.205Z,8.43
2022-08-22T22:38:45.028Z,6.85
2022-08-22T22:41:12.398Z,7.30
2022-08-22T22:43:39.287Z,6.70
2022-08-22T22:46:06.547Z,5.97
2022-08-22T22:48:33.687Z,6.15
2022-08-22T22:51:08.480Z,6.13
2022-08-22T22:53:40.512Z,8.30
2022-08-22T22:56:13.198Z,6.70
2022-08-22T22:58:41.345Z,7.97
2022-08-22T23:01:10.901Z,6.10
2022-08-22T23:03:38.314Z,7.25
2022-08-22T23:06:10.080Z,5.30
2022-08-22T23:08:36.868Z,6.93
2022-08-22T23:11:21.700Z,6.20
2022-08-22T23:13:48.909Z,6.30
2022-08-22T23:16:20.407Z,5.57
2022-08-22T23:18:47.852Z,5.22
2022-08-22T23:21:18.761Z,5.20
2022-08-22T23:23:46.779Z,6.05
2022-08-22T23:26:14.235Z,5.10
2022-08-22T23:28:41.323Z,5.20
2022-08-22T23:31:17.737Z,6.13
2022-08-22T23:33:45.841Z,6.43
2022-08-22T23:36:16.954Z,5.10
2022-08-22T23:38:45.031Z,5.60
2022-08-22T23:41:13.754Z,5.45
2022-08-22T23:43:49.680Z,6.15
2022-08-22T23:46:18.548Z,5.10
2022-08-22T23:48:45.839Z,5.45
2022-08-22T23:51:16.384Z,5.28
2022-08-22T23:53:44.366Z,5.63
2022-08-22T23:56:19.844Z,4.93
2022-08-22T23:58:47.522Z,6.03
